Terminal Aerodrome Forecast
Issued by NWS

Home | Current Version | Previous Version | Text Only | Print | Product List | Glossary On
Versions: 1 2 3 4 5 6 7 8 9 10 11 12 13 14 15 16 17 18 19 20 21 22 23 24 25 26 27
308
FTUS41 KCAR 300901 AAA
TAFPQI
TAF AMD
KPQI 300901Z 3009/3106 17006KT P6SM OVC008
     FM301300 18006KT P6SM OVC015
     FM301600 19008KT P6SM SCT020 OVC040
     FM301800 20008KT P6SM BKN040
     FM302100 20010KT P6SM VCSH BKN060
     FM302300 21011KT P6SM BKN070=

USA.gov is the U.S. government's official web portal to all federal, state and local government web resources and services.